地図

経路データ

SID SEASON NUMBER BASIN SUBBASIN NAME ISO_TIME NATURE LAT LON WMO_WIND WMO_PRES WMO_AGENCY TRACK_TYPE DIST2LAND LANDFALL IFLAG USA_AGENCY USA_ATCF_ID USA_LAT USA_LON USA_RECORD USA_STATUS USA_WIND USA_PRES USA_SSHS USA_R34_NE USA_R34_SE USA_R34_SW USA_R34_NW USA_R50_NE USA_R50_SE USA_R50_SW USA_R50_NW USA_R64_NE USA_R64_SE USA_R64_SW USA_R64_NW USA_POCI USA_ROCI USA_RMW USA_EYE TOKYO_LAT TOKYO_LON TOKYO_GRADE TOKYO_WIND TOKYO_PRES TOKYO_R50_DIR TOKYO_R50_LONG TOKYO_R50_SHORT TOKYO_R30_DIR TOKYO_R30_LONG TOKYO_R30_SHORT TOKYO_LAND CMA_LAT CMA_LON CMA_CAT CMA_WIND CMA_PRES HKO_LAT HKO_LON HKO_CAT HKO_WIND HKO_PRES NEWDELHI_LAT NEWDELHI_LON NEWDELHI_GRADE NEWDELHI_WIND NEWDELHI_PRES NEWDELHI_CI NEWDELHI_DP NEWDELHI_POCI REUNION_LAT REUNION_LON REUNION_TYPE REUNION_WIND REUNION_PRES REUNION_TNUM REUNION_CI REUNION_RMW REUNION_R34_NE REUNION_R34_SE REUNION_R34_SW REUNION_R34_NW REUNION_R50_NE REUNION_R50_SE REUNION_R50_SW REUNION_R50_NW REUNION_R64_NE REUNION_R64_SE REUNION_R64_SW REUNION_R64_NW BOM_LAT BOM_LON BOM_TYPE BOM_WIND BOM_PRES BOM_TNUM BOM_CI BOM_RMW BOM_R34_NE BOM_R34_SE BOM_R34_SW BOM_R34_NW BOM_R50_NE BOM_R50_SE BOM_R50_SW BOM_R50_NW BOM_R64_NE BOM_R64_SE BOM_R64_SW BOM_R64_NW BOM_ROCI BOM_POCI BOM_EYE BOM_POS_METHOD BOM_PRES_METHOD NADI_LAT NADI_LON NADI_CAT NADI_WIND NADI_PRES WELLINGTON_LAT WELLINGTON_LON WELLINGTON_WIND WELLINGTON_PRES DS824_LAT DS824_LON DS824_STAGE DS824_WIND DS824_PRES TD9636_LAT TD9636_LON TD9636_STAGE TD9636_WIND TD9636_PRES TD9635_LAT TD9635_LON TD9635_WIND TD9635_PRES TD9635_ROCI NEUMANN_LAT NEUMANN_LON NEUMANN_CLASS NEUMANN_WIND NEUMANN_PRES MLC_LAT MLC_LON MLC_CLASS MLC_WIND MLC_PRES USA_GUST BOM_GUST BOM_GUST_PER REUNION_GUST REUNION_GUST_PER USA_SEAHGT USA_SEARAD_NE USA_SEARAD_SE USA_SEARAD_SW USA_SEARAD_NW STORM_SPEED STORM_DIR
1927360S15061 1928 73 SI MM NOT_NAMED 1927-12-26 06:00:00 NR -15.4000 61.2000 reunion main 643 643 _____O________ -1 -15.4000 61.2000 99 9.90000 1 0
1927360S15061 1928 73 SI MM NOT_NAMED 1927-12-26 09:00:00 NR -15.3586 61.1955 main 643 643 _____P________ -1 -15.3586 61.1955 99 1 355
1927360S15061 1928 73 SI MM NOT_NAMED 1927-12-26 12:00:00 NR -15.3212 61.1807 main 652 646 _____P________ -1 -15.3212 61.1807 99 1 328
1927360S15061 1928 73 SI MM NOT_NAMED 1927-12-26 15:00:00 NR -15.2917 61.1453 main 646 646 _____P________ -1 -15.2917 61.1453 99 1 297
1927360S15061 1928 73 SI MM NOT_NAMED 1927-12-26 18:00:00 NR -15.2741 61.0792 main 646 640 _____P________ -1 -15.2741 61.0792 99 2 277
1927360S15061 1928 73 SI MM NOT_NAMED 1927-12-26 21:00:00 NR -15.2722 60.9719 main 640 629 _____P________ -1 -15.2722 60.9719 99 3 266
1927360S15061 1928 73 SI MM NOT_NAMED 1927-12-27 00:00:00 NR -15.2901 60.8132 main 629 618 _____P________ -1 -15.2901 60.8132 99 4 261
1927360S15061 1928 73 SI MM NOT_NAMED 1927-12-27 03:00:00 NR -15.3314 60.5927 main 618 598 _____P________ -1 -15.3314 60.5927 99 5 261
1927360S15061 1928 73 SI MM NOT_NAMED 1927-12-27 06:00:00 TS -15.3667 60.3333 reunion main 593 569 _____O___OO___ -1 -15.4000 60.3000 99 9.90000 -15.3000 60.4000 TC 25 -15.3000 60.4000 1 6 257
1927360S15061 1928 73 SI MM NOT_NAMED 1927-12-27 09:00:00 TS -15.4783 59.9388 main 564 538 _____P___PP___ -1 -15.4990 59.9290 99 -15.4427 59.9401 TC 25 -15.4727 59.9572 1 8 252
1927360S15061 1928 73 SI MM NOT_NAMED 1927-12-27 12:00:00 TS -15.6255 59.5031 main 538 503 _____P___OP___ -1 -15.6292 59.4918 99 -15.6000 59.5000 TC 25 -15.6460 59.5211 1 9 249
1927360S15061 1928 73 SI MM NOT_NAMED 1927-12-27 15:00:00 TS -15.7991 59.0656 main 503 470 _____P___PP___ -1 -15.7911 59.0047 99 -15.7849 59.0924 TC 25 -15.8212 59.0995 1 9 246
1927360S15061 1928 73 SI MM NOT_NAMED 1927-12-27 18:00:00 TS -15.9951 58.6281 main 468 439 _____P___OO___ -1 -15.9853 58.4844 99 -16.0000 58.7000 TC 25 -16.0000 58.7000 1 9 244
1927360S15061 1928 73 SI MM NOT_NAMED 1927-12-27 21:00:00 TS -16.2141 58.1885 main 439 414 _____P___PP___ -1 -16.2124 57.9473 99 -16.2425 58.2925 TC 25 -16.1873 58.3259 1 10 241
1927360S15061 1928 73 SI MM NOT_NAMED 1927-12-28 00:00:00 TS -16.4583 57.7577 main 402 380 _____P___OP___ -1 -16.4732 57.4098 99 -16.5000 57.9000 TC 25 -16.4018 57.9634 1 10 238
1927360S15061 1928 73 SI MM NOT_NAMED 1927-12-28 03:00:00 TS -16.7179 57.3491 main 380 350 _____P___PP___ -1 -16.7686 56.8885 99 -16.7198 57.5646 TC 25 -16.6654 57.5943 1 10 234
1927360S15061 1928 73 SI MM NOT_NAMED 1927-12-28 06:00:00 TS -17.0333 56.9333 reunion main 352 316 _____O___OO___ -1 -17.1000 56.4000 99 9.90000 -17.0000 57.2000 TC 25 -17.0000 57.2000 1 11 229
1927360S15061 1928 73 SI MM NOT_NAMED 1927-12-28 09:00:00 TS -17.4324 56.4805 main 319 292 _____P___PP___ -1 -17.4760 55.9886 99 -17.4051 56.7150 TC 25 -17.4162 56.7379 1 12 225
1927360S15061 1928 73 SI MM NOT_NAMED 1927-12-28 12:00:00 TS -17.8991 56.0169 main 292 275 _____P___OP___ -1 -17.8944 55.6001 99 -17.9000 56.2000 TC 25 -17.9030 56.2505 1 13 222
1927360S15061 1928 73 SI MM NOT_NAMED 1927-12-28 15:00:00 TS -18.4034 55.5745 main 275 235 _____P___PP___ -1 -18.3445 55.2334 99 -18.4274 55.7274 TC 25 -18.4381 55.7627 1 13 218
1927360S15061 1928 73 SI MM NOT_NAMED 1927-12-28 18:00:00 TS -18.9386 55.1626 main 235 175 _____P___OO___ -1 -18.8158 54.8877 99 -19.0000 55.3000 TC 25 -19.0000 55.3000 1 13 214
1927360S15061 1928 73 SI MM NOT_NAMED 1927-12-28 21:00:00 TS -19.4984 54.7908 main 175 139 _____P___PP___ -1 -19.2977 54.5621 99 -19.5998 54.9421 TC 25 -19.5978 54.8683 1 13 211
1927360S15061 1928 73 SI MM NOT_NAMED 1927-12-29 00:00:00 TS -20.0631 54.4415 main 137 123 _____P___OP___ -1 -19.7795 54.2561 99 -20.2000 54.6000 TC 25 -20.2097 54.4683 1 13 211
1927360S15061 1928 73 SI MM NOT_NAMED 1927-12-29 03:00:00 TS -20.6124 54.0852 main 127 127 _____P___PP___ -1 -20.2504 53.9689 99 -20.7951 54.1778 TC 25 -20.7918 54.1091 1 12 211
1927360S15061 1928 73 SI MM NOT_NAMED 1927-12-29 06:00:00 TS -21.1000 53.7667 reunion main 145 145 _____O___OO___ -1 -20.7000 53.7000 99 9.90000 -21.3000 53.8000 TC 25 -21.3000 53.8000 1 10 211
1927360S15061 1928 73 SI MM NOT_NAMED 1927-12-29 09:00:00 TS -21.4718 53.5227 main 181 181 _____P___PP___ -1 -21.0956 53.4465 99 -21.6373 53.5695 TC 25 -21.6825 53.5521 1 8 211
1927360S15061 1928 73 SI MM NOT_NAMED 1927-12-29 12:00:00 TS -21.7883 53.3229 main 211 211 _____P___OP___ -1 -21.4758 53.2156 99 -21.9000 53.4000 TC 25 -21.9892 53.3530 1 7 210
1927360S15061 1928 73 SI MM NOT_NAMED 1927-12-29 15:00:00 TS -22.0977 53.1265 main 244 244 _____P___PP___ -1 -21.8418 53.0020 99 -22.2000 53.1999 TC 25 -22.2514 53.1775 1 7 211
1927360S15061 1928 73 SI MM NOT_NAMED 1927-12-29 18:00:00 TS -22.3983 52.9334 main 276 276 _____P___OO___ -1 -22.1948 52.8001 99 -22.5000 53.0000 TC 25 -22.5000 53.0000 1 7 211
1927360S15061 1928 73 SI MM NOT_NAMED 1927-12-29 21:00:00 TS -22.7085 52.7300 main 310 310 _____P___PP___ -1 -22.5360 52.6046 99 -22.8074 52.8074 TC 25 -22.7822 52.7779 1 7 212
1927360S15061 1928 73 SI MM NOT_NAMED 1927-12-30 00:00:00 TS -23.0080 52.5198 main 345 345 _____P___OP___ -1 -22.8666 52.4098 99 -23.1000 52.6000 TC 25 -23.0575 52.5498 1 7 215
1927360S15061 1928 73 SI MM NOT_NAMED 1927-12-30 03:00:00 TS -23.2889 52.2939 main 381 381 _____P___PP___ -1 -23.1876 52.2101 99 -23.3500 52.3499 TC 25 -23.3291 52.3217 1 7 217
1927360S15061 1928 73 SI MM NOT_NAMED 1927-12-30 06:00:00 TS -23.5667 52.0667 reunion main 417 417 _____O___OO___ -1 -23.5000 52.0000 99 9.90000 -23.6000 52.1000 TC 25 -23.6000 52.1000 1 7 216
1927360S15061 1928 73 SI MM NOT_NAMED 1927-12-30 09:00:00 TS -23.8658 51.8422 main 421 404 _____P___PP___ -1 -23.8226 51.7298 99 -23.8999 51.8924 TC 25 -23.8747 51.9045 1 7 214
1927360S15061 1928 73 SI MM NOT_NAMED 1927-12-30 12:00:00 TS -24.1619 51.6208 main 406 392 _____P___OP___ -1 -24.1362 51.4480 99 -24.2000 51.7000 TC 25 -24.1496 51.7143 1 7 215
1927360S15061 1928 73 SI MM NOT_NAMED 1927-12-30 15:00:00 TS -24.4382 51.3952 main 392 379 _____P___PP___ -1 -24.4401 51.1614 99 -24.4499 51.5073 TC 25 -24.4247 51.5169 1 7 217
1927360S15061 1928 73 SI MM NOT_NAMED 1927-12-30 18:00:00 TS -24.7113 51.1590 main 382 361 _____P___OO___ -1 -24.7338 50.8769 99 -24.7000 51.3000 TC 25 -24.7000 51.3000 1 7 218
1927360S15061 1928 73 SI MM NOT_NAMED 1927-12-30 21:00:00 TS -24.9975 50.9069 main 361 344 _____P___PP___ -1 -25.0171 50.6015 99 -25.0000 51.0650 TC 25 -24.9754 51.0542 1 8 221
1927360S15061 1928 73 SI MM NOT_NAMED 1927-12-31 00:00:00 TS -25.2810 50.6120 main 344 322 _____P___OP___ -1 -25.2894 50.3421 99 -25.3000 50.8000 TC 25 -25.2506 50.7838 1 8 225
1927360S15061 1928 73 SI MM NOT_NAMED 1927-12-31 03:00:00 TS -25.5473 50.3040 main 322 304 _____P___PP___ -1 -25.5505 50.1059 99 -25.5626 50.5077 TC 25 -25.5256 50.4965 1 8 227
1927360S15061 1928 73 SI MM NOT_NAMED 1927-12-31 06:00:00 TS -25.8000 50.0000 reunion main 304 283 _____O___OO___ -1 -25.8000 49.9000 99 9.90000 -25.8000 50.2000 TC 25 -25.8000 50.2000 1 7 227
1927360S15061 1928 73 SI MM NOT_NAMED 1927-12-31 09:00:00 NR -26.0380 49.7297 main 283 283 _____P________ -1 -26.0380 49.7297 99 TC 1 6 218
1927360S15061 1928 73 SI MM NOT_NAMED 1927-12-31 12:00:00 NR -26.2656 49.5923 main 289 286 _____P________ -1 -26.2656 49.5923 99 1 5 206
1927360S15061 1928 73 SI MM NOT_NAMED 1927-12-31 15:00:00 NR -26.4846 49.4834 main 292 291 _____P________ -1 -26.4846 49.4834 99 1 5 202
1927360S15061 1928 73 SI MM NOT_NAMED 1927-12-31 18:00:00 NR -26.6963 49.3981 main 298 297 _____P________ -1 -26.6963 49.3981 99 4 198
1927360S15061 1928 73 SI MM NOT_NAMED 1927-12-31 21:00:00 NR -26.9022 49.3320 main 305 305 _____P________ -1 -26.9022 49.3320 99 4 194
1927360S15061 1928 73 SI MM NOT_NAMED 1928-01-01 00:00:00 NR -27.1039 49.2800 main 320 320 _____P________ -1 -27.1039 49.2800 99 4 192
1927360S15061 1928 73 SI MM NOT_NAMED 1928-01-01 03:00:00 NR -27.3027 49.2377 main 329 329 _____P________ -1 -27.3027 49.2377 99 4 189
1927360S15061 1928 73 SI MM NOT_NAMED 1928-01-01 06:00:00 NR -27.5000 49.2000 reunion main 346 _____O________ -1 -27.5000 49.2000 99 9.90000 4 192

IBTrACS Databaseについて

本データベースは、米国NOAAが公開する1842年以降の世界の熱帯低気圧のベストトラックデータアーカイブInternational Best Track Archive for Climate Stewardship (IBTrACS)を、ウェブで閲覧しやすい形式に変換したものです。

最終更新日:2021-10-21